Strona główna
METAR-TAF:

METAR-TAF

Lotnisko :

Jacareacanga, Pará, Brazylia

Szerokość geograficzna: 06-16S, Długość geograficzna: 057-44W, wysokość: 98 m

Aktualna obserwacja pogody

Raport powstał 8 godziny i 3 minut temu, godzina 21:00 UTC
Wiatr 1 kt od zachodnio-południowy zachód
Temperatura 32°C
Wilgotność 71%
Ciśnienie 1007 hPa
Widzialność 10 km lub więcej
Mało chmury na wysokości 2000 ft
Mało chmury na wysokości 2500 ft, Cumulonimbus.
burza

METAR: SBEK 082100Z 25001KT 9999 TS FEW020 FEW025CB 32/26 Q1007

czas: 02:03 (05:03 UTC)


TAF: brakujący

Obserwacja i prognoza pogody dla ponad 4000 lotnisk (raport METAR i TAF).

Dostępne stacje oznaczono żółtymi i czerwonymi punktami na mapie.

Najedź kursorem aby zobaczyć nazwę stacji.

Kliknij aby zobaczyć obserwacje i prognozy pogody.

Aby zmienić mapę: kliknij na zielony przycisk z czarnym krzyżykiem, aby powiększyć; na zielony przycisk z myślnikiem, aby pomniejszyć; na zielone strzałki, aby przejść do map sąsiednich.


METAR-TAF: